createdAt,value
2022-10-28T00:01:13.040Z,4.60
2022-10-28T00:03:43.781Z,3.80
2022-10-28T00:06:14.733Z,4.00
2022-10-28T00:08:42.629Z,4.43
2022-10-28T00:11:12.608Z,4.40
2022-10-28T00:13:41.245Z,3.80
2022-10-28T00:16:11.963Z,4.40
2022-10-28T00:18:40.185Z,4.53
2022-10-28T00:21:11.439Z,4.57
2022-10-28T00:23:39.607Z,4.07
2022-10-28T00:26:09.321Z,3.75
2022-10-28T00:28:40.654Z,4.20
2022-10-28T00:31:09.964Z,3.72
2022-10-28T00:33:38.151Z,3.75
2022-10-28T00:36:12.523Z,3.70
2022-10-28T00:38:40.987Z,3.50
2022-10-28T00:41:09.743Z,3.42
2022-10-28T00:43:40.211Z,3.78
2022-10-28T00:46:15.797Z,3.78
2022-10-28T00:48:46.493Z,3.72
2022-10-28T00:51:17.295Z,3.88
2022-10-28T00:53:48.786Z,3.70
2022-10-28T00:56:17.765Z,4.37
2022-10-28T00:58:46.975Z,3.45
2022-10-28T01:01:15.076Z,3.85
2022-10-28T01:03:42.938Z,3.45
2022-10-28T01:06:11.674Z,3.50
2022-10-28T01:08:40.792Z,3.42
2022-10-28T01:12:00.343Z,3.60
2022-10-28T01:14:41.607Z,3.40
2022-10-28T01:17:23.715Z,3.60
2022-10-28T01:20:36.188Z,3.40
2022-10-28T01:23:17.127Z,3.55
2022-10-28T01:26:37.698Z,3.25
2022-10-28T01:29:47.394Z,3.42
2022-10-28T01:32:24.577Z,3.20
2022-10-28T01:35:06.578Z,3.20
2022-10-28T01:37:39.024Z,3.30
2022-10-28T01:40:13.107Z,3.10
2022-10-28T01:42:45.895Z,3.30
2022-10-28T01:45:20.162Z,3.03
2022-10-28T01:47:55.024Z,3.22
2022-10-28T01:50:26.550Z,3.25
2022-10-28T01:52:57.757Z,3.45
2022-10-28T01:55:28.922Z,3.27
2022-10-28T01:58:00.098Z,3.45
2022-10-28T02:00:28.541Z,3.30
2022-10-28T02:02:57.874Z,3.13
2022-10-28T02:05:41.035Z,3.47
2022-10-28T02:08:31.012Z,3.17
2022-10-28T02:11:16.631Z,3.22
2022-10-28T02:13:53.348Z,3.20
2022-10-28T02:16:25.903Z,3.30
2022-10-28T02:19:02.993Z,3.20
2022-10-28T02:21:38.135Z,3.35
2022-10-28T02:24:14.910Z,3.75
2022-10-28T02:26:47.943Z,3.33
2022-10-28T02:29:21.831Z,3.67
2022-10-28T02:31:54.746Z,3.67
2022-10-28T02:34:28.310Z,3.00
2022-10-28T02:36:57.471Z,3.47
2022-10-28T02:39:30.262Z,3.27
2022-10-28T02:42:03.725Z,3.40
2022-10-28T02:44:39.458Z,3.25
2022-10-28T02:47:11.041Z,3.03
2022-10-28T02:49:44.669Z,3.00
2022-10-28T02:52:13.602Z,3.50
2022-10-28T02:54:44.542Z,3.20
2022-10-28T02:57:16.703Z,3.30
2022-10-28T02:59:44.717Z,3.03
2022-10-28T03:02:12.511Z,3.17
2022-10-28T03:04:41.722Z,2.90
2022-10-28T03:07:09.474Z,3.20
2022-10-28T03:09:37.330Z,3.25
2022-10-28T03:12:05.586Z,2.92
2022-10-28T03:14:33.324Z,3.05
2022-10-28T03:17:01.192Z,2.95
2022-10-28T03:19:29.073Z,2.97
2022-10-28T03:21:58.184Z,3.05
2022-10-28T03:24:25.966Z,3.20
2022-10-28T03:26:53.759Z,3.08
2022-10-28T03:29:21.555Z,3.13
2022-10-28T03:31:49.302Z,3.33
2022-10-28T03:34:17.044Z,3.00
2022-10-28T03:36:44.801Z,2.80
2022-10-28T03:39:14.011Z,3.00
2022-10-28T03:41:41.974Z,3.10
2022-10-28T03:44:09.803Z,3.10
2022-10-28T03:46:37.587Z,2.95
2022-10-28T03:49:05.446Z,3.00
2022-10-28T03:51:33.237Z,3.00
2022-10-28T03:54:01.067Z,3.00
2022-10-28T03:56:30.259Z,3.70
2022-10-28T03:58:58.050Z,3.50
2022-10-28T04:01:26.084Z,3.88
2022-10-28T04:03:54.065Z,4.05
2022-10-28T04:06:21.822Z,3.70
2022-10-28T04:08:49.686Z,3.60
2022-10-28T04:11:17.480Z,3.88
2022-10-28T04:13:46.539Z,3.92
2022-10-28T04:16:14.283Z,4.60
2022-10-28T04:18:42.099Z,4.30
2022-10-28T04:21:09.831Z,3.90
2022-10-28T04:23:37.588Z,4.32
2022-10-28T04:26:05.750Z,4.35
2022-10-28T04:28:33.583Z,3.95
2022-10-28T04:31:03.094Z,3.75
2022-10-28T04:33:30.931Z,3.83
2022-10-28T04:35:58.681Z,3.70
2022-10-28T04:38:26.468Z,3.60
2022-10-28T04:40:54.377Z,3.85
2022-10-28T04:43:22.152Z,4.00
2022-10-28T04:45:49.922Z,3.70
2022-10-28T04:48:19.116Z,4.13
2022-10-28T04:50:46.934Z,3.87
2022-10-28T04:53:14.842Z,3.50
2022-10-28T04:55:42.630Z,3.53
2022-10-28T04:58:10.994Z,3.50
2022-10-28T05:00:38.775Z,3.50
2022-10-28T05:03:06.706Z,3.90
2022-10-28T05:05:35.881Z,3.70
2022-10-28T05:08:03.659Z,3.87
2022-10-28T05:10:31.462Z,3.53
2022-10-28T05:12:59.228Z,3.40
2022-10-28T05:15:27.274Z,3.90
2022-10-28T05:17:55.464Z,4.00
2022-10-28T05:20:23.923Z,3.95
2022-10-28T05:22:55.802Z,4.13
2022-10-28T05:25:24.338Z,3.40
2022-10-28T05:27:52.410Z,3.58
2022-10-28T05:30:20.364Z,4.00
2022-10-28T05:32:50.379Z,3.60
2022-10-28T05:35:20.768Z,4.20
2022-10-28T05:37:48.541Z,3.83
2022-10-28T05:40:17.836Z,4.23
2022-10-28T05:42:45.649Z,3.60
2022-10-28T05:45:13.903Z,4.13
2022-10-28T05:47:44.280Z,4.18
2022-10-28T05:50:12.464Z,3.80
2022-10-28T05:52:40.242Z,4.20
2022-10-28T05:55:09.702Z,3.70
2022-10-28T05:57:39.275Z,3.55
2022-10-28T06:00:08.459Z,3.72
2022-10-28T06:02:36.224Z,3.60
2022-10-28T06:05:04.223Z,4.70
2022-10-28T06:07:32.033Z,4.22
2022-10-28T06:09:59.777Z,4.35
2022-10-28T06:12:26.374Z,3.78
2022-10-28T06:14:55.484Z,4.07
2022-10-28T06:17:23.551Z,3.85
2022-10-28T06:19:51.415Z,4.00
2022-10-28T06:22:19.315Z,4.47
2022-10-28T06:24:47.079Z,4.00
2022-10-28T06:27:14.884Z,4.78
2022-10-28T06:29:42.659Z,4.40
2022-10-28T06:32:11.786Z,4.20
2022-10-28T06:34:39.591Z,4.20
2022-10-28T06:37:08.945Z,4.15
2022-10-28T06:39:38.242Z,3.85
2022-10-28T06:42:06.143Z,4.30
2022-10-28T06:44:33.908Z,4.00
2022-10-28T06:47:03.221Z,3.78
2022-10-28T06:49:32.684Z,3.90
2022-10-28T06:52:00.508Z,3.80
2022-10-28T06:54:28.284Z,3.60
2022-10-28T06:56:56.068Z,4.05
2022-10-28T06:59:23.876Z,3.95
2022-10-28T07:01:51.674Z,3.90
2022-10-28T07:04:19.558Z,3.97
2022-10-28T07:06:51.239Z,3.60
2022-10-28T07:09:19.835Z,3.80
2022-10-28T07:11:54.804Z,4.30
2022-10-28T07:14:23.182Z,3.97
2022-10-28T07:16:50.991Z,3.95
2022-10-28T07:19:22.480Z,4.53
2022-10-28T07:21:51.925Z,5.43
2022-10-28T07:24:19.798Z,5.68
2022-10-28T07:26:50.297Z,6.05
2022-10-28T07:29:20.060Z,6.03
2022-10-28T07:31:47.795Z,6.80
2022-10-28T07:34:15.824Z,6.20
2022-10-28T07:36:43.753Z,6.33
2022-10-28T07:39:12.962Z,7.85
2022-10-28T07:41:40.788Z,11.15
2022-10-28T07:44:08.574Z,7.60
2022-10-28T07:46:36.403Z,9.65
2022-10-28T07:49:04.545Z,8.05
2022-10-28T07:51:32.324Z,7.20
2022-10-28T07:54:00.250Z,5.40
2022-10-28T07:56:29.394Z,5.10
2022-10-28T07:58:57.213Z,4.10
2022-10-28T08:01:25.068Z,3.70
2022-10-28T08:03:52.951Z,4.30
2022-10-28T08:06:22.707Z,4.63
2022-10-28T08:08:55.141Z,4.38
2022-10-28T08:11:24.746Z,6.55
2022-10-28T08:13:55.752Z,5.78
2022-10-28T08:16:23.681Z,4.65
2022-10-28T08:18:53.054Z,4.18
2022-10-28T08:21:20.867Z,4.32
2022-10-28T08:23:48.659Z,3.70
2022-10-28T08:26:17.321Z,3.35
2022-10-28T08:28:45.102Z,3.83
2022-10-28T08:31:14.383Z,3.65
2022-10-28T08:33:44.308Z,4.10
2022-10-28T08:36:13.717Z,3.83
2022-10-28T08:38:45.305Z,4.00
2022-10-28T08:41:35.941Z,3.70
2022-10-28T08:44:50.293Z,4.15
2022-10-28T08:47:30.455Z,4.47
2022-10-28T08:50:03.640Z,4.70
2022-10-28T08:52:35.741Z,5.00
2022-10-28T08:55:07.037Z,4.40
2022-10-28T08:57:40.036Z,4.35
2022-10-28T09:00:14.029Z,4.88
2022-10-28T09:02:57.412Z,5.57
2022-10-28T09:05:26.816Z,4.25
2022-10-28T09:07:56.679Z,4.40
2022-10-28T09:10:45.071Z,4.40
2022-10-28T09:13:22.109Z,4.53
2022-10-28T09:15:58.648Z,4.40
2022-10-28T09:18:42.157Z,4.50
2022-10-28T09:21:19.201Z,4.47
2022-10-28T09:23:55.148Z,5.40
2022-10-28T09:26:36.633Z,7.78
2022-10-28T09:29:16.390Z,5.82
2022-10-28T09:31:48.330Z,7.10
2022-10-28T09:34:27.909Z,4.97
2022-10-28T09:36:59.324Z,5.28
2022-10-28T09:39:33.162Z,5.50
2022-10-28T09:42:03.663Z,3.00
2022-10-28T09:44:40.026Z,4.17
2022-10-28T09:47:15.910Z,7.25
2022-10-28T09:49:47.182Z,3.13
2022-10-28T09:52:20.160Z,3.92
2022-10-28T09:54:51.767Z,2.75
2022-10-28T09:57:20.101Z,2.67
2022-10-28T09:59:48.542Z,1.80
2022-10-28T10:02:30.233Z,2.07
2022-10-28T10:05:01.701Z,2.90
2022-10-28T10:07:34.801Z,3.08
2022-10-28T10:10:07.122Z,3.30
2022-10-28T10:12:35.331Z,4.40
2022-10-28T10:15:07.013Z,1.70
2022-10-28T10:17:41.425Z,4.38
2022-10-28T10:20:12.518Z,2.50
2022-10-28T10:22:42.335Z,2.83
2022-10-28T10:25:29.786Z,1.70
2022-10-28T10:28:00.300Z,2.67
2022-10-28T10:30:32.217Z,1.73
2022-10-28T10:33:00.586Z,2.30
2022-10-28T10:35:31.455Z,1.50
2022-10-28T10:38:02.166Z,2.10
2022-10-28T10:40:32.063Z,2.00
2022-10-28T10:43:24.480Z,1.60
2022-10-28T10:45:54.446Z,1.70
2022-10-28T10:48:22.226Z,1.60
2022-10-28T10:50:52.106Z,2.00
2022-10-28T10:53:22.593Z,2.25
2022-10-28T10:55:53.172Z,2.67
2022-10-28T10:58:23.464Z,11.00
2022-10-28T11:00:53.544Z,2.58
2022-10-28T11:03:25.489Z,6.15
2022-10-28T11:06:18.459Z,1.70
2022-10-28T11:08:45.158Z,11.85
2022-10-28T11:11:15.636Z,1.77
2022-10-28T11:13:46.153Z,9.27
2022-10-28T11:16:22.385Z,2.45
2022-10-28T11:18:52.700Z,4.45
2022-10-28T11:21:48.130Z,4.30
2022-10-28T11:24:31.375Z,3.05
2022-10-28T11:27:09.765Z,5.72
2022-10-28T11:29:37.643Z,1.55
2022-10-28T11:32:29.429Z,5.97
2022-10-28T11:35:11.292Z,2.85
2022-10-28T11:37:58.765Z,6.35
2022-10-28T11:40:34.448Z,5.40
2022-10-28T11:43:18.797Z,2.47
2022-10-28T11:45:53.760Z,2.78
2022-10-28T11:48:33.111Z,3.22
2022-10-28T11:51:12.660Z,2.47
2022-10-28T11:54:17.718Z,2.17
2022-10-28T11:56:49.712Z,2.85
2022-10-28T11:59:42.857Z,2.63
2022-10-28T12:02:23.582Z,2.60
2022-10-28T12:05:02.481Z,1.55
2022-10-28T12:07:52.156Z,4.18
2022-10-28T12:10:41.622Z,3.80
2022-10-28T12:13:19.372Z,3.70
2022-10-28T12:15:57.160Z,3.07
2022-10-28T12:18:33.427Z,1.45
2022-10-28T12:21:07.580Z,2.95
2022-10-28T12:23:39.343Z,1.73
2022-10-28T12:26:13.591Z,1.60
2022-10-28T12:28:45.855Z,1.35
2022-10-28T12:31:21.619Z,2.10
2022-10-28T12:33:52.572Z,2.58
2022-10-28T12:36:31.904Z,2.03
2022-10-28T12:39:03.605Z,3.65
2022-10-28T12:41:46.721Z,1.83
2022-10-28T12:44:17.459Z,3.40
2022-10-28T12:46:53.537Z,2.63
2022-10-28T12:49:29.010Z,2.30
2022-10-28T12:52:01.874Z,1.70
2022-10-28T12:54:37.450Z,2.40
2022-10-28T12:57:14.013Z,4.53
2022-10-28T12:59:45.501Z,2.88
2022-10-28T13:02:18.352Z,17.15
2022-10-28T13:04:46.435Z,9.82
2022-10-28T13:07:48.831Z,5.10
2022-10-28T13:10:29.930Z,2.10
2022-10-28T13:13:23.971Z,2.95
2022-10-28T13:16:25.202Z,13.65
2022-10-28T13:19:16.784Z,10.05
2022-10-28T13:22:15.326Z,4.20
2022-10-28T13:24:55.375Z,2.10
2022-10-28T13:27:23.903Z,4.32
2022-10-28T13:29:56.268Z,1.60
2022-10-28T13:32:37.363Z,3.45
2022-10-28T13:35:14.862Z,3.78
2022-10-28T13:37:46.240Z,3.83
2022-10-28T13:40:24.016Z,4.93
2022-10-28T13:42:52.036Z,9.40
2022-10-28T13:45:48.115Z,3.22
2022-10-28T13:48:49.162Z,4.97
2022-10-28T13:51:33.780Z,4.00
2022-10-28T13:54:02.088Z,9.95
2022-10-28T13:56:50.880Z,10.20
2022-10-28T13:59:27.630Z,10.38
2022-10-28T14:02:32.537Z,9.95
2022-10-28T14:05:00.049Z,12.23
2022-10-28T14:07:31.331Z,18.85
2022-10-28T14:10:20.242Z,10.38
2022-10-28T14:12:52.285Z,10.27
2022-10-28T14:15:26.287Z,9.93
2022-10-28T14:18:09.917Z,15.68
2022-10-28T14:20:54.802Z,2.67
2022-10-28T14:23:51.651Z,2.78
2022-10-28T14:26:19.446Z,2.00
2022-10-28T14:28:56.761Z,2.30
2022-10-28T14:31:44.791Z,2.00
2022-10-28T14:34:42.203Z,3.17
2022-10-28T14:37:57.145Z,2.80
2022-10-28T14:40:33.445Z,2.83
2022-10-28T14:43:24.014Z,2.17
2022-10-28T14:46:04.941Z,2.38
2022-10-28T14:48:47.653Z,2.55
2022-10-28T14:51:19.709Z,4.68
2022-10-28T14:53:48.426Z,3.08
2022-10-28T14:56:25.888Z,3.50
2022-10-28T14:58:55.784Z,3.00
2022-10-28T15:01:28.708Z,3.10
2022-10-28T15:04:02.111Z,2.58
2022-10-28T15:06:37.350Z,2.50
2022-10-28T15:09:11.481Z,4.10
2022-10-28T15:11:43.807Z,2.75
2022-10-28T15:14:23.711Z,2.60
2022-10-28T15:16:52.210Z,2.70
2022-10-28T15:19:21.841Z,2.53
2022-10-28T15:22:12.090Z,2.97
2022-10-28T15:24:43.076Z,2.70
2022-10-28T15:27:15.028Z,2.80
2022-10-28T15:29:43.621Z,2.73
2022-10-28T15:32:16.097Z,2.80
2022-10-28T15:34:44.397Z,3.78
2022-10-28T15:37:18.625Z,5.20
2022-10-28T15:39:46.863Z,3.00
2022-10-28T15:42:39.791Z,2.60
2022-10-28T15:45:16.551Z,2.70
2022-10-28T15:47:46.874Z,3.00
2022-10-28T15:50:31.558Z,3.58
2022-10-28T15:53:37.545Z,3.40
2022-10-28T15:56:10.570Z,2.72
2022-10-28T15:58:41.007Z,2.67
2022-10-28T16:01:11.390Z,2.67
2022-10-28T16:03:45.354Z,2.70
2022-10-28T16:06:25.746Z,3.20
2022-10-28T16:09:07.531Z,2.97
2022-10-28T16:11:39.228Z,3.00
2022-10-28T16:14:30.725Z,3.05
2022-10-28T16:19:41.868Z,3.45
2022-10-28T16:22:13.548Z,3.72
2022-10-28T16:24:42.962Z,3.60
2022-10-28T16:27:17.319Z,3.05
2022-10-28T16:29:45.837Z,3.40
2022-10-28T16:32:15.538Z,3.22
2022-10-28T16:34:43.451Z,3.15
2022-10-28T16:37:23.367Z,3.05
2022-10-28T16:39:52.615Z,3.28
2022-10-28T16:42:21.792Z,3.10
2022-10-28T16:44:49.659Z,3.40
2022-10-28T16:47:19.169Z,3.35
2022-10-28T16:49:52.400Z,3.30
2022-10-28T16:52:25.961Z,3.17
2022-10-28T16:54:55.082Z,3.08
2022-10-28T16:59:56.866Z,3.00
2022-10-28T17:02:28.937Z,3.40
2022-10-28T17:04:57.521Z,3.30
2022-10-28T17:07:25.865Z,3.88
2022-10-28T17:09:55.078Z,3.45
2022-10-28T17:12:24.608Z,3.45
2022-10-28T17:14:52.685Z,3.30
2022-10-28T17:17:20.720Z,3.20
2022-10-28T17:19:48.521Z,3.20
2022-10-28T17:22:16.285Z,4.10
2022-10-28T17:24:44.080Z,3.90
2022-10-28T17:27:13.750Z,4.07
2022-10-28T17:29:41.579Z,4.83
2022-10-28T17:32:09.718Z,8.10
2022-10-28T17:34:38.012Z,8.52
2022-10-28T17:37:07.460Z,6.40
2022-10-28T17:39:35.239Z,4.55
2022-10-28T17:42:03.831Z,5.70
2022-10-28T17:44:32.949Z,4.63
2022-10-28T17:47:00.695Z,4.43
2022-10-28T17:49:28.514Z,4.68
2022-10-28T17:51:56.332Z,4.70
2022-10-28T17:56:56.759Z,4.43
2022-10-28T17:59:24.611Z,4.38
2022-10-28T18:01:54.347Z,4.82
2022-10-28T18:04:26.149Z,4.13
2022-10-28T18:06:55.173Z,4.25
2022-10-28T18:09:22.964Z,4.50
2022-10-28T18:11:50.957Z,3.90
2022-10-28T18:14:20.056Z,4.05
2022-10-28T18:16:50.029Z,3.95
2022-10-28T18:19:19.198Z,4.18
2022-10-28T18:21:47.002Z,4.55
2022-10-28T18:24:14.927Z,3.85
2022-10-28T18:26:42.755Z,3.85
2022-10-28T18:29:12.993Z,4.10
2022-10-28T18:31:44.097Z,3.90
2022-10-28T18:34:12.146Z,3.65
2022-10-28T18:36:41.342Z,4.20
2022-10-28T18:39:09.832Z,4.38
2022-10-28T18:41:41.503Z,4.43
2022-10-28T18:44:12.573Z,5.03
2022-10-28T18:46:40.648Z,4.97
2022-10-28T18:49:08.421Z,5.30
2022-10-28T18:51:36.244Z,5.20
2022-10-28T18:54:05.754Z,5.00
2022-10-28T18:56:34.012Z,5.60
2022-10-28T18:59:03.549Z,4.75
2022-10-28T19:01:32.090Z,5.00
2022-10-28T19:04:01.432Z,4.63
2022-10-28T19:06:32.540Z,5.10
2022-10-28T19:09:02.108Z,5.25
2022-10-28T19:11:32.642Z,4.63
2022-10-28T19:14:02.339Z,4.68
2022-10-28T19:16:31.857Z,5.25
2022-10-28T19:19:00.886Z,5.38
2022-10-28T19:21:29.338Z,6.85
2022-10-28T19:23:57.222Z,6.37
2022-10-28T19:26:25.149Z,6.43
2022-10-28T19:28:54.485Z,6.10
2022-10-28T19:31:24.202Z,6.57
2022-10-28T19:33:53.158Z,6.53
2022-10-28T19:36:22.705Z,6.82
2022-10-28T19:38:53.449Z,7.47
2022-10-28T19:41:22.784Z,7.00
2022-10-28T19:43:58.132Z,7.50
2022-10-28T19:46:27.557Z,7.18
2022-10-28T19:48:57.669Z,7.00
2022-10-28T19:51:28.134Z,7.10
2022-10-28T19:53:57.460Z,6.25
2022-10-28T19:56:26.030Z,6.77
2022-10-28T19:58:56.434Z,5.93
2022-10-28T20:01:25.989Z,6.05
2022-10-28T20:03:55.372Z,6.18
2022-10-28T20:06:24.796Z,5.82
2022-10-28T20:08:52.922Z,5.70
2022-10-28T20:11:25.889Z,6.30
2022-10-28T20:13:57.698Z,6.10
2022-10-28T20:16:25.997Z,6.65
2022-10-28T20:18:55.067Z,5.90
2022-10-28T20:21:24.601Z,5.90
2022-10-28T20:23:54.568Z,6.90
2022-10-28T20:26:23.880Z,6.63
2022-10-28T20:28:51.768Z,6.57
2022-10-28T20:31:22.548Z,6.50
2022-10-28T20:33:52.463Z,6.68
2022-10-28T20:36:25.180Z,6.60
2022-10-28T20:38:57.639Z,9.00
2022-10-28T20:41:27.385Z,9.13
2022-10-28T20:43:55.607Z,8.15
2022-10-28T20:46:26.393Z,7.93
2022-10-28T20:48:54.718Z,8.77
2022-10-28T20:51:23.309Z,8.02
2022-10-28T20:53:51.511Z,8.68
2022-10-28T20:56:21.200Z,7.68
2022-10-28T20:58:49.100Z,8.70
2022-10-28T21:01:18.768Z,8.10
2022-10-28T21:03:49.000Z,7.97
2022-10-28T21:06:17.804Z,8.57
2022-10-28T21:08:45.630Z,9.00
2022-10-28T21:11:14.502Z,8.40
2022-10-28T21:13:42.977Z,8.45
2022-10-28T21:16:12.904Z,8.30
2022-10-28T21:18:41.235Z,8.70
2022-10-28T21:21:11.997Z,9.00
2022-10-28T21:23:39.857Z,8.33
2022-10-28T21:26:09.557Z,8.50
2022-10-28T21:28:37.577Z,8.90
2022-10-28T21:31:06.794Z,8.10
2022-10-28T21:33:35.772Z,8.10
2022-10-28T21:36:05.865Z,8.07
2022-10-28T21:38:35.397Z,7.93
2022-10-28T21:41:05.375Z,8.10
2022-10-28T21:43:35.345Z,8.45
2022-10-28T21:46:03.349Z,8.73
2022-10-28T21:48:32.184Z,9.07
2022-10-28T21:51:02.370Z,8.80
2022-10-28T21:53:35.070Z,8.95
2022-10-28T21:56:04.602Z,8.80
2022-10-28T21:58:32.394Z,9.05
2022-10-28T22:01:05.128Z,8.27
2022-10-28T22:03:32.963Z,8.00
2022-10-28T22:06:00.736Z,8.50
2022-10-28T22:08:28.861Z,8.00
2022-10-28T22:11:02.273Z,8.07
2022-10-28T22:13:30.074Z,7.65
2022-10-28T22:15:59.527Z,7.35
2022-10-28T22:18:27.998Z,7.03
2022-10-28T22:20:56.007Z,7.03
2022-10-28T22:23:24.013Z,6.88
2022-10-28T22:25:51.769Z,6.43
2022-10-28T22:28:20.921Z,6.05
2022-10-28T22:30:48.669Z,6.05
2022-10-28T22:33:16.440Z,7.10
2022-10-28T22:35:44.228Z,6.88
2022-10-28T22:38:11.962Z,7.05
2022-10-28T22:40:39.722Z,6.57
2022-10-28T22:43:07.524Z,6.63
2022-10-28T22:45:36.741Z,6.80
2022-10-28T22:48:04.728Z,7.33
2022-10-28T22:50:32.567Z,6.38
2022-10-28T22:53:00.341Z,6.97
2022-10-28T22:55:28.089Z,6.63
2022-10-28T22:57:57.963Z,6.80
2022-10-28T23:00:26.045Z,6.82
2022-10-28T23:02:57.065Z,6.07
2022-10-28T23:05:25.149Z,6.17
2022-10-28T23:07:54.417Z,5.85
2022-10-28T23:10:22.280Z,5.75
2022-10-28T23:12:56.227Z,6.05
2022-10-28T23:15:24.250Z,5.78
2022-10-28T23:17:53.096Z,6.00
2022-10-28T23:20:24.620Z,6.13
2022-10-28T23:22:55.781Z,5.60
2022-10-28T23:25:23.573Z,5.70
2022-10-28T23:27:51.332Z,5.60
2022-10-28T23:30:19.209Z,5.30
2022-10-28T23:32:47.289Z,5.45
2022-10-28T23:35:15.454Z,5.22
2022-10-28T23:37:44.556Z,5.13
2022-10-28T23:40:13.021Z,5.32
2022-10-28T23:42:40.843Z,5.30
2022-10-28T23:45:09.477Z,5.32
2022-10-28T23:47:37.236Z,5.32
2022-10-28T23:50:05.764Z,5.65
2022-10-28T23:52:33.534Z,5.10
2022-10-28T23:55:02.625Z,5.22
2022-10-28T23:57:30.402Z,4.85
2022-10-28T23:59:58.153Z,4.75
